sensor_id;sensor_type;location;lat;lon;timestamp;P1;durP1;ratioP1;P2;durP2;ratioP2
14294;SDS011;7231;59.370;18.016;2023-02-28T00:01:29;0.97;;;0.67;;
14294;SDS011;7231;59.370;18.016;2023-02-28T00:03:58;1.00;;;0.70;;
14294;SDS011;7231;59.370;18.016;2023-02-28T00:06:27;2.40;;;0.70;;
14294;SDS011;7231;59.370;18.016;2023-02-28T00:08:55;1.37;;;0.90;;
14294;SDS011;7231;59.370;18.016;2023-02-28T00:11:23;2.40;;;0.87;;
14294;SDS011;7231;59.370;18.016;2023-02-28T00:13:52;1.20;;;0.70;;
14294;SDS011;7231;59.370;18.016;2023-02-28T00:16:20;1.00;;;0.73;;
14294;SDS011;7231;59.370;18.016;2023-02-28T00:18:49;0.90;;;0.70;;
14294;SDS011;7231;59.370;18.016;2023-02-28T00:21:18;1.00;;;0.60;;
14294;SDS011;7231;59.370;18.016;2023-02-28T00:23:48;1.10;;;0.70;;
14294;SDS011;7231;59.370;18.016;2023-02-28T00:26:16;0.90;;;0.80;;
14294;SDS011;7231;59.370;18.016;2023-02-28T00:28:47;3.13;;;0.83;;
14294;SDS011;7231;59.370;18.016;2023-02-28T00:31:15;2.70;;;1.00;;
14294;SDS011;7231;59.370;18.016;2023-02-28T00:33:43;0.63;;;0.63;;
14294;SDS011;7231;59.370;18.016;2023-02-28T00:36:11;1.13;;;0.80;;
14294;SDS011;7231;59.370;18.016;2023-02-28T00:38:39;1.00;;;0.90;;
14294;SDS011;7231;59.370;18.016;2023-02-28T00:41:09;1.40;;;0.90;;
14294;SDS011;7231;59.370;18.016;2023-02-28T00:43:38;1.27;;;1.00;;
14294;SDS011;7231;59.370;18.016;2023-02-28T00:46:06;1.03;;;0.77;;
14294;SDS011;7231;59.370;18.016;2023-02-28T00:48:35;1.87;;;1.10;;
14294;SDS011;7231;59.370;18.016;2023-02-28T00:51:04;2.10;;;1.00;;
14294;SDS011;7231;59.370;18.016;2023-02-28T00:53:32;1.40;;;1.00;;
14294;SDS011;7231;59.370;18.016;2023-02-28T00:56:00;1.67;;;0.97;;
14294;SDS011;7231;59.370;18.016;2023-02-28T00:58:29;1.20;;;0.83;;
14294;SDS011;7231;59.370;18.016;2023-02-28T01:00:57;1.30;;;0.70;;
14294;SDS011;7231;59.370;18.016;2023-02-28T01:03:25;1.37;;;0.80;;
14294;SDS011;7231;59.370;18.016;2023-02-28T01:05:53;0.63;;;0.57;;
14294;SDS011;7231;59.370;18.016;2023-02-28T01:08:21;1.60;;;0.80;;
14294;SDS011;7231;59.370;18.016;2023-02-28T01:10:49;1.27;;;0.70;;
14294;SDS011;7231;59.370;18.016;2023-02-28T01:13:17;1.23;;;0.60;;
14294;SDS011;7231;59.370;18.016;2023-02-28T01:15:49;1.10;;;0.80;;
14294;SDS011;7231;59.370;18.016;2023-02-28T01:18:18;1.10;;;0.60;;
14294;SDS011;7231;59.370;18.016;2023-02-28T01:20:47;0.83;;;0.70;;
14294;SDS011;7231;59.370;18.016;2023-02-28T01:23:15;0.73;;;0.60;;
14294;SDS011;7231;59.370;18.016;2023-02-28T01:25:43;0.83;;;0.50;;
14294;SDS011;7231;59.370;18.016;2023-02-28T01:28:12;1.00;;;0.70;;
14294;SDS011;7231;59.370;18.016;2023-02-28T01:30:39;0.97;;;0.67;;
14294;SDS011;7231;59.370;18.016;2023-02-28T01:33:09;1.50;;;0.50;;
14294;SDS011;7231;59.370;18.016;2023-02-28T01:35:37;1.33;;;0.50;;
14294;SDS011;7231;59.370;18.016;2023-02-28T01:38:05;0.97;;;0.53;;
14294;SDS011;7231;59.370;18.016;2023-02-28T01:40:47;2.00;;;0.50;;
14294;SDS011;7231;59.370;18.016;2023-02-28T01:43:19;0.93;;;0.57;;
14294;SDS011;7231;59.370;18.016;2023-02-28T01:45:50;1.67;;;0.70;;
14294;SDS011;7231;59.370;18.016;2023-02-28T01:48:20;0.80;;;0.60;;
14294;SDS011;7231;59.370;18.016;2023-02-28T01:50:50;0.70;;;0.60;;
14294;SDS011;7231;59.370;18.016;2023-02-28T01:53:21;0.70;;;0.40;;
14294;SDS011;7231;59.370;18.016;2023-02-28T01:55:53;1.00;;;0.60;;
14294;SDS011;7231;59.370;18.016;2023-02-28T01:58:22;1.33;;;0.60;;
14294;SDS011;7231;59.370;18.016;2023-02-28T02:00:50;1.23;;;0.53;;
14294;SDS011;7231;59.370;18.016;2023-02-28T02:03:20;0.50;;;0.47;;
14294;SDS011;7231;59.370;18.016;2023-02-28T02:05:48;0.87;;;0.50;;
14294;SDS011;7231;59.370;18.016;2023-02-28T02:08:17;0.60;;;0.40;;
14294;SDS011;7231;59.370;18.016;2023-02-28T02:10:48;1.50;;;0.70;;
14294;SDS011;7231;59.370;18.016;2023-02-28T02:13:32;0.50;;;0.47;;
14294;SDS011;7231;59.370;18.016;2023-02-28T02:16:12;0.80;;;0.50;;
14294;SDS011;7231;59.370;18.016;2023-02-28T02:18:52;0.50;;;0.50;;
14294;SDS011;7231;59.370;18.016;2023-02-28T02:21:30;0.70;;;0.50;;
14294;SDS011;7231;59.370;18.016;2023-02-28T02:27:23;0.80;;;0.50;;
14294;SDS011;7231;59.370;18.016;2023-02-28T02:30:08;0.50;;;0.40;;
14294;SDS011;7231;59.370;18.016;2023-02-28T02:35:47;0.70;;;0.60;;
14294;SDS011;7231;59.370;18.016;2023-02-28T02:38:20;0.60;;;0.50;;
14294;SDS011;7231;59.370;18.016;2023-02-28T02:41:02;0.87;;;0.60;;
14294;SDS011;7231;59.370;18.016;2023-02-28T02:43:36;0.60;;;0.50;;
14294;SDS011;7231;59.370;18.016;2023-02-28T02:46:12;0.50;;;0.47;;
14294;SDS011;7231;59.370;18.016;2023-02-28T02:48:44;0.97;;;0.60;;
14294;SDS011;7231;59.370;18.016;2023-02-28T02:51:16;0.80;;;0.60;;
14294;SDS011;7231;59.370;18.016;2023-02-28T02:53:48;1.63;;;0.53;;
14294;SDS011;7231;59.370;18.016;2023-02-28T02:56:21;1.60;;;0.53;;
14294;SDS011;7231;59.370;18.016;2023-02-28T02:58:53;0.90;;;0.60;;
14294;SDS011;7231;59.370;18.016;2023-02-28T03:01:26;2.40;;;0.60;;
14294;SDS011;7231;59.370;18.016;2023-02-28T03:03:58;1.80;;;0.60;;
14294;SDS011;7231;59.370;18.016;2023-02-28T03:06:31;0.87;;;0.50;;
14294;SDS011;7231;59.370;18.016;2023-02-28T03:09:00;0.73;;;0.60;;
14294;SDS011;7231;59.370;18.016;2023-02-28T03:11:28;0.80;;;0.60;;
14294;SDS011;7231;59.370;18.016;2023-02-28T03:14:09;0.47;;;0.33;;
14294;SDS011;7231;59.370;18.016;2023-02-28T03:16:51;0.60;;;0.50;;
14294;SDS011;7231;59.370;18.016;2023-02-28T03:19:43;0.53;;;0.43;;
14294;SDS011;7231;59.370;18.016;2023-02-28T03:22:32;0.40;;;0.40;;
14294;SDS011;7231;59.370;18.016;2023-02-28T03:25:12;1.33;;;0.47;;
14294;SDS011;7231;59.370;18.016;2023-02-28T03:27:48;0.40;;;0.40;;
14294;SDS011;7231;59.370;18.016;2023-02-28T03:30:27;1.27;;;0.50;;
14294;SDS011;7231;59.370;18.016;2023-02-28T03:33:01;0.50;;;0.50;;
14294;SDS011;7231;59.370;18.016;2023-02-28T03:35:34;1.63;;;0.60;;
14294;SDS011;7231;59.370;18.016;2023-02-28T03:38:08;1.60;;;0.40;;
14294;SDS011;7231;59.370;18.016;2023-02-28T03:40:42;0.73;;;0.40;;
14294;SDS011;7231;59.370;18.016;2023-02-28T03:43:17;0.33;;;0.33;;
14294;SDS011;7231;59.370;18.016;2023-02-28T03:45:49;1.07;;;0.40;;
14294;SDS011;7231;59.370;18.016;2023-02-28T03:48:19;0.77;;;0.50;;
14294;SDS011;7231;59.370;18.016;2023-02-28T03:50:53;0.90;;;0.43;;
14294;SDS011;7231;59.370;18.016;2023-02-28T03:53:27;0.83;;;0.50;;
14294;SDS011;7231;59.370;18.016;2023-02-28T03:55:59;0.40;;;0.40;;
14294;SDS011;7231;59.370;18.016;2023-02-28T03:58:31;0.57;;;0.40;;
14294;SDS011;7231;59.370;18.016;2023-02-28T04:01:06;0.50;;;0.37;;
14294;SDS011;7231;59.370;18.016;2023-02-28T04:03:37;0.60;;;0.40;;
14294;SDS011;7231;59.370;18.016;2023-02-28T04:06:07;0.40;;;0.30;;
14294;SDS011;7231;59.370;18.016;2023-02-28T04:08:42;0.50;;;0.40;;
14294;SDS011;7231;59.370;18.016;2023-02-28T04:11:13;0.50;;;0.30;;
14294;SDS011;7231;59.370;18.016;2023-02-28T04:13:47;0.40;;;0.40;;
14294;SDS011;7231;59.370;18.016;2023-02-28T04:16:15;0.60;;;0.40;;
14294;SDS011;7231;59.370;18.016;2023-02-28T04:19:00;0.40;;;0.40;;
14294;SDS011;7231;59.370;18.016;2023-02-28T04:21:30;0.40;;;0.40;;
14294;SDS011;7231;59.370;18.016;2023-02-28T04:24:00;0.57;;;0.40;;
14294;SDS011;7231;59.370;18.016;2023-02-28T04:26:28;0.63;;;0.40;;
14294;SDS011;7231;59.370;18.016;2023-02-28T04:28:57;0.40;;;0.40;;
14294;SDS011;7231;59.370;18.016;2023-02-28T04:31:25;0.47;;;0.40;;
14294;SDS011;7231;59.370;18.016;2023-02-28T04:33:54;0.40;;;0.40;;
14294;SDS011;7231;59.370;18.016;2023-02-28T04:36:22;0.70;;;0.50;;
14294;SDS011;7231;59.370;18.016;2023-02-28T04:38:51;0.50;;;0.50;;
14294;SDS011;7231;59.370;18.016;2023-02-28T04:41:20;0.70;;;0.60;;
14294;SDS011;7231;59.370;18.016;2023-02-28T04:43:50;1.00;;;0.50;;
14294;SDS011;7231;59.370;18.016;2023-02-28T04:46:18;0.50;;;0.40;;
14294;SDS011;7231;59.370;18.016;2023-02-28T04:48:47;1.00;;;0.50;;
14294;SDS011;7231;59.370;18.016;2023-02-28T04:51:16;0.60;;;0.50;;
14294;SDS011;7231;59.370;18.016;2023-02-28T04:53:45;1.53;;;0.60;;
14294;SDS011;7231;59.370;18.016;2023-02-28T04:56:15;0.40;;;0.40;;
14294;SDS011;7231;59.370;18.016;2023-02-28T04:58:46;0.50;;;0.40;;
14294;SDS011;7231;59.370;18.016;2023-02-28T05:01:16;0.50;;;0.40;;
14294;SDS011;7231;59.370;18.016;2023-02-28T05:03:46;0.67;;;0.53;;
14294;SDS011;7231;59.370;18.016;2023-02-28T05:06:15;0.57;;;0.40;;
14294;SDS011;7231;59.370;18.016;2023-02-28T05:08:43;0.50;;;0.40;;
14294;SDS011;7231;59.370;18.016;2023-02-28T05:11:13;0.63;;;0.40;;
14294;SDS011;7231;59.370;18.016;2023-02-28T05:13:44;0.63;;;0.40;;
14294;SDS011;7231;59.370;18.016;2023-02-28T05:16:14;0.40;;;0.37;;
14294;SDS011;7231;59.370;18.016;2023-02-28T05:18:43;0.60;;;0.50;;
14294;SDS011;7231;59.370;18.016;2023-02-28T05:21:24;0.47;;;0.43;;
14294;SDS011;7231;59.370;18.016;2023-02-28T05:23:55;0.70;;;0.50;;
14294;SDS011;7231;59.370;18.016;2023-02-28T05:26:23;0.73;;;0.50;;
14294;SDS011;7231;59.370;18.016;2023-02-28T05:28:52;0.97;;;0.67;;
14294;SDS011;7231;59.370;18.016;2023-02-28T05:31:22;0.80;;;0.60;;
14294;SDS011;7231;59.370;18.016;2023-02-28T05:33:50;0.80;;;0.40;;
14294;SDS011;7231;59.370;18.016;2023-02-28T05:36:19;0.57;;;0.40;;
14294;SDS011;7231;59.370;18.016;2023-02-28T05:38:47;0.60;;;0.57;;
14294;SDS011;7231;59.370;18.016;2023-02-28T05:41:16;0.93;;;0.70;;
14294;SDS011;7231;59.370;18.016;2023-02-28T05:43:45;0.50;;;0.50;;
14294;SDS011;7231;59.370;18.016;2023-02-28T05:46:14;0.60;;;0.50;;
14294;SDS011;7231;59.370;18.016;2023-02-28T05:48:45;0.67;;;0.60;;
14294;SDS011;7231;59.370;18.016;2023-02-28T05:51:14;1.40;;;0.40;;
14294;SDS011;7231;59.370;18.016;2023-02-28T05:53:43;0.87;;;0.40;;
14294;SDS011;7231;59.370;18.016;2023-02-28T05:56:11;1.63;;;0.53;;
14294;SDS011;7231;59.370;18.016;2023-02-28T05:58:38;0.67;;;0.50;;
14294;SDS011;7231;59.370;18.016;2023-02-28T06:01:20;0.47;;;0.37;;
14294;SDS011;7231;59.370;18.016;2023-02-28T06:03:51;0.70;;;0.50;;
14294;SDS011;7231;59.370;18.016;2023-02-28T06:06:19;0.73;;;0.60;;
14294;SDS011;7231;59.370;18.016;2023-02-28T06:08:47;0.80;;;0.40;;
14294;SDS011;7231;59.370;18.016;2023-02-28T06:11:15;2.87;;;0.60;;
14294;SDS011;7231;59.370;18.016;2023-02-28T06:13:43;0.40;;;0.40;;
14294;SDS011;7231;59.370;18.016;2023-02-28T06:16:11;0.80;;;0.50;;
14294;SDS011;7231;59.370;18.016;2023-02-28T06:18:39;0.97;;;0.60;;
14294;SDS011;7231;59.370;18.016;2023-02-28T06:21:08;0.50;;;0.43;;
14294;SDS011;7231;59.370;18.016;2023-02-28T06:23:36;0.90;;;0.57;;
14294;SDS011;7231;59.370;18.016;2023-02-28T06:26:04;0.50;;;0.50;;
14294;SDS011;7231;59.370;18.016;2023-02-28T06:28:33;0.80;;;0.50;;
14294;SDS011;7231;59.370;18.016;2023-02-28T06:31:05;0.73;;;0.50;;
14294;SDS011;7231;59.370;18.016;2023-02-28T06:33:34;1.23;;;0.53;;
14294;SDS011;7231;59.370;18.016;2023-02-28T06:36:03;0.40;;;0.40;;
14294;SDS011;7231;59.370;18.016;2023-02-28T06:38:33;0.60;;;0.40;;
14294;SDS011;7231;59.370;18.016;2023-02-28T06:41:01;0.67;;;0.47;;
14294;SDS011;7231;59.370;18.016;2023-02-28T06:43:32;0.70;;;0.50;;
14294;SDS011;7231;59.370;18.016;2023-02-28T06:46:02;0.70;;;0.50;;
14294;SDS011;7231;59.370;18.016;2023-02-28T06:48:31;1.20;;;0.50;;
14294;SDS011;7231;59.370;18.016;2023-02-28T06:51:02;1.47;;;0.47;;
14294;SDS011;7231;59.370;18.016;2023-02-28T06:53:32;0.40;;;0.40;;
14294;SDS011;7231;59.370;18.016;2023-02-28T06:56:03;1.07;;;0.63;;
14294;SDS011;7231;59.370;18.016;2023-02-28T06:58:32;0.50;;;0.50;;
14294;SDS011;7231;59.370;18.016;2023-02-28T07:01:00;0.50;;;0.40;;
14294;SDS011;7231;59.370;18.016;2023-02-28T07:03:29;1.27;;;0.53;;
14294;SDS011;7231;59.370;18.016;2023-02-28T07:05:59;0.93;;;0.60;;
14294;SDS011;7231;59.370;18.016;2023-02-28T07:08:28;1.33;;;0.60;;
14294;SDS011;7231;59.370;18.016;2023-02-28T07:10:57;0.40;;;0.30;;
14294;SDS011;7231;59.370;18.016;2023-02-28T07:13:26;0.93;;;0.67;;
14294;SDS011;7231;59.370;18.016;2023-02-28T07:15:56;1.27;;;0.73;;
14294;SDS011;7231;59.370;18.016;2023-02-28T07:18:25;1.50;;;0.50;;
14294;SDS011;7231;59.370;18.016;2023-02-28T07:20:53;1.70;;;0.60;;
14294;SDS011;7231;59.370;18.016;2023-02-28T07:23:21;2.60;;;0.70;;
14294;SDS011;7231;59.370;18.016;2023-02-28T07:25:50;0.77;;;0.57;;
14294;SDS011;7231;59.370;18.016;2023-02-28T07:28:19;1.00;;;0.43;;
14294;SDS011;7231;59.370;18.016;2023-02-28T07:30:47;1.73;;;0.47;;
14294;SDS011;7231;59.370;18.016;2023-02-28T07:33:16;0.70;;;0.50;;
14294;SDS011;7231;59.370;18.016;2023-02-28T07:35:44;4.90;;;0.83;;
14294;SDS011;7231;59.370;18.016;2023-02-28T07:38:12;0.57;;;0.57;;
14294;SDS011;7231;59.370;18.016;2023-02-28T07:40:40;1.47;;;0.77;;
14294;SDS011;7231;59.370;18.016;2023-02-28T07:43:08;2.30;;;0.70;;
14294;SDS011;7231;59.370;18.016;2023-02-28T07:45:38;2.87;;;0.80;;
14294;SDS011;7231;59.370;18.016;2023-02-28T07:48:06;1.40;;;0.60;;
14294;SDS011;7231;59.370;18.016;2023-02-28T07:50:36;0.87;;;0.40;;
14294;SDS011;7231;59.370;18.016;2023-02-28T07:53:04;2.10;;;0.50;;
14294;SDS011;7231;59.370;18.016;2023-02-28T07:55:32;0.83;;;0.50;;
14294;SDS011;7231;59.370;18.016;2023-02-28T07:58:00;0.30;;;0.30;;
14294;SDS011;7231;59.370;18.016;2023-02-28T08:00:28;0.60;;;0.60;;
14294;SDS011;7231;59.370;18.016;2023-02-28T08:02:59;0.63;;;0.33;;
14294;SDS011;7231;59.370;18.016;2023-02-28T08:05:27;1.38;;;0.30;;
14294;SDS011;7231;59.370;18.016;2023-02-28T08:07:56;2.08;;;0.40;;
14294;SDS011;7231;59.370;18.016;2023-02-28T08:10:24;0.88;;;0.20;;
14294;SDS011;7231;59.370;18.016;2023-02-28T08:12:52;0.70;;;0.50;;
14294;SDS011;7231;59.370;18.016;2023-02-28T08:15:20;0.65;;;0.40;;
14294;SDS011;7231;59.370;18.016;2023-02-28T08:17:48;2.80;;;0.40;;
14294;SDS011;7231;59.370;18.016;2023-02-28T08:20:17;0.50;;;0.38;;
14294;SDS011;7231;59.370;18.016;2023-02-28T08:22:45;0.30;;;0.30;;
14294;SDS011;7231;59.370;18.016;2023-02-28T08:25:14;0.40;;;0.20;;
14294;SDS011;7231;59.370;18.016;2023-02-28T08:27:42;0.73;;;0.40;;
14294;SDS011;7231;59.370;18.016;2023-02-28T08:30:10;0.30;;;0.30;;
14294;SDS011;7231;59.370;18.016;2023-02-28T08:32:38;0.20;;;0.20;;
14294;SDS011;7231;59.370;18.016;2023-02-28T08:35:07;0.63;;;0.40;;
14294;SDS011;7231;59.370;18.016;2023-02-28T08:37:38;0.55;;;0.30;;
14294;SDS011;7231;59.370;18.016;2023-02-28T08:40:06;2.90;;;0.40;;
14294;SDS011;7231;59.370;18.016;2023-02-28T08:42:35;1.40;;;0.30;;
14294;SDS011;7231;59.370;18.016;2023-02-28T08:45:03;0.50;;;0.30;;
14294;SDS011;7231;59.370;18.016;2023-02-28T08:47:32;0.95;;;0.43;;
14294;SDS011;7231;59.370;18.016;2023-02-28T08:50:00;0.73;;;0.60;;
14294;SDS011;7231;59.370;18.016;2023-02-28T08:52:28;0.57;;;0.40;;
14294;SDS011;7231;59.370;18.016;2023-02-28T08:54:57;0.30;;;0.30;;
14294;SDS011;7231;59.370;18.016;2023-02-28T08:57:25;0.43;;;0.30;;
14294;SDS011;7231;59.370;18.016;2023-02-28T08:59:53;0.20;;;0.20;;
14294;SDS011;7231;59.370;18.016;2023-02-28T09:02:21;0.22;;;0.20;;
14294;SDS011;7231;59.370;18.016;2023-02-28T09:04:49;0.85;;;0.40;;
14294;SDS011;7231;59.370;18.016;2023-02-28T09:07:17;0.47;;;0.30;;
14294;SDS011;7231;59.370;18.016;2023-02-28T09:09:45;0.60;;;0.22;;
14294;SDS011;7231;59.370;18.016;2023-02-28T09:12:22;0.80;;;0.32;;
14294;SDS011;7231;59.370;18.016;2023-02-28T09:14:51;0.43;;;0.30;;
14294;SDS011;7231;59.370;18.016;2023-02-28T09:17:19;0.47;;;0.20;;
14294;SDS011;7231;59.370;18.016;2023-02-28T09:19:48;0.52;;;0.38;;
14294;SDS011;7231;59.370;18.016;2023-02-28T09:22:16;1.20;;;0.50;;
14294;SDS011;7231;59.370;18.016;2023-02-28T09:24:44;0.47;;;0.30;;
14294;SDS011;7231;59.370;18.016;2023-02-28T09:27:12;0.30;;;0.28;;
14294;SDS011;7231;59.370;18.016;2023-02-28T09:29:41;1.65;;;0.40;;
14294;SDS011;7231;59.370;18.016;2023-02-28T09:32:09;0.30;;;0.30;;
14294;SDS011;7231;59.370;18.016;2023-02-28T09:34:37;0.50;;;0.35;;
14294;SDS011;7231;59.370;18.016;2023-02-28T09:37:05;0.40;;;0.38;;
14294;SDS011;7231;59.370;18.016;2023-02-28T09:39:33;0.65;;;0.40;;
14294;SDS011;7231;59.370;18.016;2023-02-28T09:42:02;1.02;;;0.32;;
14294;SDS011;7231;59.370;18.016;2023-02-28T09:44:31;0.57;;;0.30;;
14294;SDS011;7231;59.370;18.016;2023-02-28T09:47:07;0.30;;;0.30;;
14294;SDS011;7231;59.370;18.016;2023-02-28T09:49:42;0.75;;;0.40;;
14294;SDS011;7231;59.370;18.016;2023-02-28T09:52:14;1.95;;;0.40;;
14294;SDS011;7231;59.370;18.016;2023-02-28T09:54:46;1.30;;;0.30;;
14294;SDS011;7231;59.370;18.016;2023-02-28T09:57:16;0.85;;;0.40;;
14294;SDS011;7231;59.370;18.016;2023-02-28T09:59:55;0.47;;;0.40;;
14294;SDS011;7231;59.370;18.016;2023-02-28T10:02:48;0.60;;;0.30;;
14294;SDS011;7231;59.370;18.016;2023-02-28T10:05:24;0.80;;;0.32;;
14294;SDS011;7231;59.370;18.016;2023-02-28T10:08:00;0.40;;;0.40;;
14294;SDS011;7231;59.370;18.016;2023-02-28T10:10:33;0.50;;;0.30;;
14294;SDS011;7231;59.370;18.016;2023-02-28T10:13:06;0.93;;;0.43;;
14294;SDS011;7231;59.370;18.016;2023-02-28T10:15:44;0.30;;;0.30;;
14294;SDS011;7231;59.370;18.016;2023-02-28T10:18:19;2.13;;;0.60;;
14294;SDS011;7231;59.370;18.016;2023-02-28T10:20:52;0.55;;;0.40;;
14294;SDS011;7231;59.370;18.016;2023-02-28T10:23:23;0.38;;;0.30;;
14294;SDS011;7231;59.370;18.016;2023-02-28T10:25:57;1.50;;;0.50;;
14294;SDS011;7231;59.370;18.016;2023-02-28T10:28:28;2.28;;;0.47;;
14294;SDS011;7231;59.370;18.016;2023-02-28T10:30:58;0.60;;;0.50;;
14294;SDS011;7231;59.370;18.016;2023-02-28T10:33:29;1.15;;;0.50;;
14294;SDS011;7231;59.370;18.016;2023-02-28T10:36:00;0.50;;;0.50;;
14294;SDS011;7231;59.370;18.016;2023-02-28T10:38:32;3.55;;;0.70;;
14294;SDS011;7231;59.370;18.016;2023-02-28T10:41:06;1.65;;;0.63;;
14294;SDS011;7231;59.370;18.016;2023-02-28T10:43:36;1.35;;;0.70;;
14294;SDS011;7231;59.370;18.016;2023-02-28T10:46:09;2.35;;;0.60;;
14294;SDS011;7231;59.370;18.016;2023-02-28T10:48:44;2.67;;;0.60;;
14294;SDS011;7231;59.370;18.016;2023-02-28T10:51:16;0.80;;;0.40;;
14294;SDS011;7231;59.370;18.016;2023-02-28T10:53:49;1.35;;;0.50;;
14294;SDS011;7231;59.370;18.016;2023-02-28T10:56:28;1.73;;;0.52;;
14294;SDS011;7231;59.370;18.016;2023-02-28T10:58:58;0.75;;;0.50;;
14294;SDS011;7231;59.370;18.016;2023-02-28T11:01:34;1.25;;;0.50;;
14294;SDS011;7231;59.370;18.016;2023-02-28T11:04:17;0.80;;;0.50;;
14294;SDS011;7231;59.370;18.016;2023-02-28T11:06:51;4.35;;;0.68;;
14294;SDS011;7231;59.370;18.016;2023-02-28T11:09:27;0.88;;;0.30;;
14294;SDS011;7231;59.370;18.016;2023-02-28T11:11:58;0.55;;;0.47;;
14294;SDS011;7231;59.370;18.016;2023-02-28T11:14:27;0.88;;;0.40;;
14294;SDS011;7231;59.370;18.016;2023-02-28T11:16:57;2.65;;;0.52;;
14294;SDS011;7231;59.370;18.016;2023-02-28T11:19:43;0.73;;;0.40;;
14294;SDS011;7231;59.370;18.016;2023-02-28T11:22:16;1.33;;;0.57;;
14294;SDS011;7231;59.370;18.016;2023-02-28T11:24:47;0.90;;;0.70;;
14294;SDS011;7231;59.370;18.016;2023-02-28T11:27:26;2.15;;;0.75;;
14294;SDS011;7231;59.370;18.016;2023-02-28T11:30:24;1.13;;;0.73;;
14294;SDS011;7231;59.370;18.016;2023-02-28T11:32:54;0.55;;;0.40;;
14294;SDS011;7231;59.370;18.016;2023-02-28T11:35:24;1.92;;;0.65;;
14294;SDS011;7231;59.370;18.016;2023-02-28T11:37:56;0.40;;;0.40;;
14294;SDS011;7231;59.370;18.016;2023-02-28T11:40:27;1.52;;;0.40;;
14294;SDS011;7231;59.370;18.016;2023-02-28T11:43:04;1.38;;;0.52;;
14294;SDS011;7231;59.370;18.016;2023-02-28T11:45:43;1.00;;;0.43;;
14294;SDS011;7231;59.370;18.016;2023-02-28T11:48:18;0.65;;;0.40;;
14294;SDS011;7231;59.370;18.016;2023-02-28T11:50:54;1.35;;;0.50;;
14294;SDS011;7231;59.370;18.016;2023-02-28T11:53:44;0.57;;;0.57;;
14294;SDS011;7231;59.370;18.016;2023-02-28T11:56:21;0.38;;;0.32;;
14294;SDS011;7231;59.370;18.016;2023-02-28T11:58:59;1.23;;;0.70;;
14294;SDS011;7231;59.370;18.016;2023-02-28T12:01:38;0.52;;;0.43;;
14294;SDS011;7231;59.370;18.016;2023-02-28T12:04:22;0.52;;;0.40;;
14294;SDS011;7231;59.370;18.016;2023-02-28T12:06:57;0.88;;;0.40;;
14294;SDS011;7231;59.370;18.016;2023-02-28T12:09:37;1.08;;;0.50;;
14294;SDS011;7231;59.370;18.016;2023-02-28T12:12:15;0.30;;;0.30;;
14294;SDS011;7231;59.370;18.016;2023-02-28T12:17:47;1.75;;;0.60;;
14294;SDS011;7231;59.370;18.016;2023-02-28T12:20:25;4.07;;;0.47;;
14294;SDS011;7231;59.370;18.016;2023-02-28T12:23:04;0.40;;;0.35;;
14294;SDS011;7231;59.370;18.016;2023-02-28T12:25:55;1.00;;;0.60;;
14294;SDS011;7231;59.370;18.016;2023-02-28T12:28:31;1.42;;;0.60;;
14294;SDS011;7231;59.370;18.016;2023-02-28T12:31:04;1.90;;;0.40;;
14294;SDS011;7231;59.370;18.016;2023-02-28T12:33:43;1.05;;;0.70;;
14294;SDS011;7231;59.370;18.016;2023-02-28T12:36:16;1.65;;;0.40;;
14294;SDS011;7231;59.370;18.016;2023-02-28T12:38:50;0.85;;;0.40;;
14294;SDS011;7231;59.370;18.016;2023-02-28T12:41:24;0.75;;;0.60;;
14294;SDS011;7231;59.370;18.016;2023-02-28T12:44:09;1.02;;;0.50;;
14294;SDS011;7231;59.370;18.016;2023-02-28T12:46:42;1.65;;;0.40;;
14294;SDS011;7231;59.370;18.016;2023-02-28T12:49:13;2.47;;;0.50;;
14294;SDS011;7231;59.370;18.016;2023-02-28T12:51:44;0.20;;;0.20;;
14294;SDS011;7231;59.370;18.016;2023-02-28T12:54:18;0.43;;;0.40;;
14294;SDS011;7231;59.370;18.016;2023-02-28T12:56:53;0.50;;;0.50;;
14294;SDS011;7231;59.370;18.016;2023-02-28T12:59:32;0.88;;;0.32;;
14294;SDS011;7231;59.370;18.016;2023-02-28T13:05:03;1.30;;;0.60;;
14294;SDS011;7231;59.370;18.016;2023-02-28T13:07:48;1.40;;;0.60;;
14294;SDS011;7231;59.370;18.016;2023-02-28T13:10:41;0.60;;;0.40;;
14294;SDS011;7231;59.370;18.016;2023-02-28T13:13:14;2.17;;;0.35;;
14294;SDS011;7231;59.370;18.016;2023-02-28T13:15:57;1.10;;;0.25;;
14294;SDS011;7231;59.370;18.016;2023-02-28T13:18:31;1.45;;;0.50;;
14294;SDS011;7231;59.370;18.016;2023-02-28T13:21:04;2.35;;;0.50;;
14294;SDS011;7231;59.370;18.016;2023-02-28T13:23:41;0.50;;;0.38;;
14294;SDS011;7231;59.370;18.016;2023-02-28T13:29:32;1.67;;;0.45;;
14294;SDS011;7231;59.370;18.016;2023-02-28T13:32:19;1.05;;;0.30;;
14294;SDS011;7231;59.370;18.016;2023-02-28T13:38:17;0.93;;;0.45;;
14294;SDS011;7231;59.370;18.016;2023-02-28T13:40:50;0.38;;;0.38;;
14294;SDS011;7231;59.370;18.016;2023-02-28T13:43:18;1.65;;;0.60;;
14294;SDS011;7231;59.370;18.016;2023-02-28T13:46:09;1.23;;;0.30;;
14294;SDS011;7231;59.370;18.016;2023-02-28T13:48:39;2.15;;;0.40;;
14294;SDS011;7231;59.370;18.016;2023-02-28T13:54:13;1.05;;;0.60;;
14294;SDS011;7231;59.370;18.016;2023-02-28T13:56:53;1.15;;;0.50;;
14294;SDS011;7231;59.370;18.016;2023-02-28T13:59:33;3.20;;;0.47;;
14294;SDS011;7231;59.370;18.016;2023-02-28T14:05:15;0.52;;;0.40;;
14294;SDS011;7231;59.370;18.016;2023-02-28T14:07:46;0.82;;;0.45;;
14294;SDS011;7231;59.370;18.016;2023-02-28T14:10:21;2.97;;;0.50;;
14294;SDS011;7231;59.370;18.016;2023-02-28T14:12:57;2.08;;;0.40;;
14294;SDS011;7231;59.370;18.016;2023-02-28T14:15:41;1.15;;;0.32;;
14294;SDS011;7231;59.370;18.016;2023-02-28T14:18:17;2.17;;;0.65;;
14294;SDS011;7231;59.370;18.016;2023-02-28T14:20:59;0.60;;;0.55;;
14294;SDS011;7231;59.370;18.016;2023-02-28T14:23:42;0.75;;;0.50;;
14294;SDS011;7231;59.370;18.016;2023-02-28T14:26:33;1.10;;;0.50;;
14294;SDS011;7231;59.370;18.016;2023-02-28T14:29:29;1.27;;;0.55;;
14294;SDS011;7231;59.370;18.016;2023-02-28T14:32:06;1.25;;;0.40;;
14294;SDS011;7231;59.370;18.016;2023-02-28T14:34:42;2.25;;;0.82;;
14294;SDS011;7231;59.370;18.016;2023-02-28T14:37:17;1.40;;;0.60;;
14294;SDS011;7231;59.370;18.016;2023-02-28T14:39:51;0.70;;;0.50;;
14294;SDS011;7231;59.370;18.016;2023-02-28T14:42:27;0.85;;;0.65;;
14294;SDS011;7231;59.370;18.016;2023-02-28T14:44:56;0.77;;;0.60;;
14294;SDS011;7231;59.370;18.016;2023-02-28T14:47:30;2.25;;;0.60;;
14294;SDS011;7231;59.370;18.016;2023-02-28T14:50:00;4.00;;;0.60;;
14294;SDS011;7231;59.370;18.016;2023-02-28T14:52:32;1.08;;;0.73;;
14294;SDS011;7231;59.370;18.016;2023-02-28T14:55:01;3.65;;;1.33;;
14294;SDS011;7231;59.370;18.016;2023-02-28T14:57:34;1.80;;;0.80;;
14294;SDS011;7231;59.370;18.016;2023-02-28T15:00:10;1.23;;;0.77;;
14294;SDS011;7231;59.370;18.016;2023-02-28T15:02:41;2.15;;;0.80;;
14294;SDS011;7231;59.370;18.016;2023-02-28T15:05:18;2.45;;;0.95;;
14294;SDS011;7231;59.370;18.016;2023-02-28T15:08:03;0.80;;;0.55;;
14294;SDS011;7231;59.370;18.016;2023-02-28T15:10:33;2.83;;;0.98;;
14294;SDS011;7231;59.370;18.016;2023-02-28T15:13:02;1.17;;;0.90;;
14294;SDS011;7231;59.370;18.016;2023-02-28T15:15:35;1.77;;;0.88;;
14294;SDS011;7231;59.370;18.016;2023-02-28T15:18:30;2.80;;;0.80;;
14294;SDS011;7231;59.370;18.016;2023-02-28T15:21:06;3.67;;;1.00;;
14294;SDS011;7231;59.370;18.016;2023-02-28T15:23:40;1.95;;;0.80;;
14294;SDS011;7231;59.370;18.016;2023-02-28T15:26:10;1.45;;;0.70;;
14294;SDS011;7231;59.370;18.016;2023-02-28T15:28:41;1.30;;;0.80;;
14294;SDS011;7231;59.370;18.016;2023-02-28T15:31:18;4.70;;;1.30;;
14294;SDS011;7231;59.370;18.016;2023-02-28T15:33:52;3.65;;;1.00;;
14294;SDS011;7231;59.370;18.016;2023-02-28T15:36:23;4.15;;;0.88;;
14294;SDS011;7231;59.370;18.016;2023-02-28T15:38:57;1.20;;;0.70;;
14294;SDS011;7231;59.370;18.016;2023-02-28T15:41:41;1.00;;;0.73;;
14294;SDS011;7231;59.370;18.016;2023-02-28T15:44:15;3.50;;;0.50;;